createdAt,value
2022-09-22T00:01:26.942Z,102065.47
2022-09-22T00:04:00.546Z,102063.00
2022-09-22T00:06:37.387Z,102060.56
2022-09-22T00:09:07.392Z,102066.81
2022-09-22T00:11:38.926Z,102062.25
2022-09-22T00:14:10.569Z,102062.50
2022-09-22T00:16:44.679Z,102056.56
2022-09-22T00:19:19.515Z,102051.97
2022-09-22T00:21:47.796Z,102051.97
2022-09-22T00:24:16.742Z,102051.25
2022-09-22T00:26:44.066Z,102049.59
2022-09-22T00:29:11.665Z,102060.28
2022-09-22T00:31:40.801Z,102058.59
2022-09-22T00:34:13.764Z,102061.47
2022-09-22T00:36:40.713Z,102053.09
2022-09-22T00:39:07.809Z,102053.22
2022-09-22T00:41:40.612Z,102063.13
2022-09-22T00:44:38.857Z,102057.03
2022-09-22T00:47:32.479Z,102048.25
2022-09-22T00:50:22.131Z,102040.44
2022-09-22T00:53:02.050Z,102044.22
2022-09-22T00:55:36.568Z,102050.44
2022-09-22T00:58:08.517Z,102039.91
2022-09-22T01:00:35.569Z,102037.31
2022-09-22T01:03:07.323Z,102043.69
2022-09-22T01:05:35.847Z,102040.19
2022-09-22T01:08:03.436Z,102042.03
2022-09-22T01:10:30.484Z,102041.34
2022-09-22T01:13:32.301Z,102044.91
2022-09-22T01:16:25.779Z,102044.09
2022-09-22T01:19:28.803Z,102038.94
2022-09-22T01:22:39.451Z,102030.91
2022-09-22T01:25:34.090Z,102035.59
2022-09-22T01:28:23.736Z,102034.03
2022-09-22T01:31:05.497Z,102022.63
2022-09-22T01:33:49.258Z,102023.72
2022-09-22T01:37:13.136Z,102020.41
2022-09-22T01:39:50.226Z,102025.13
2022-09-22T01:42:43.079Z,102016.41
2022-09-22T01:45:24.925Z,102014.59
2022-09-22T01:47:58.537Z,102020.16
2022-09-22T01:50:44.339Z,102022.91
2022-09-22T01:53:17.523Z,102018.50
2022-09-22T01:55:52.831Z,102013.34
2022-09-22T01:58:32.641Z,102017.81
2022-09-22T02:01:24.078Z,102016.13
2022-09-22T02:04:05.091Z,102007.38
2022-09-22T02:06:50.579Z,102004.81
2022-09-22T02:09:22.173Z,102003.00
2022-09-22T02:11:49.509Z,102006.75
2022-09-22T02:14:16.937Z,102005.16
2022-09-22T02:16:44.368Z,101996.31
2022-09-22T02:19:24.130Z,102003.41
2022-09-22T02:21:52.344Z,101995.56
2022-09-22T02:24:43.575Z,101994.63
2022-09-22T02:27:25.617Z,101995.63
2022-09-22T02:30:08.225Z,101992.22
2022-09-22T02:32:38.448Z,101996.84
2022-09-22T02:35:07.471Z,101988.00
2022-09-22T02:38:06.881Z,101989.94
2022-09-22T02:41:01.651Z,101978.41
2022-09-22T02:43:48.683Z,101986.50
2022-09-22T02:46:39.543Z,101986.56
2022-09-22T02:49:13.600Z,101978.59
2022-09-22T02:51:42.000Z,101983.28
2022-09-22T02:54:09.110Z,101978.91
2022-09-22T02:56:36.206Z,101977.19
2022-09-22T02:59:03.058Z,101978.16
2022-09-22T03:01:30.032Z,101973.81
2022-09-22T03:03:57.030Z,101976.66
2022-09-22T03:06:23.926Z,101981.19
2022-09-22T03:08:51.141Z,101969.66
2022-09-22T03:11:18.134Z,101975.94
2022-09-22T03:13:45.191Z,101964.63
2022-09-22T03:16:12.205Z,101978.22
2022-09-22T03:18:39.286Z,101973.78
2022-09-22T03:21:06.369Z,101967.00
2022-09-22T03:23:33.315Z,101971.72
2022-09-22T03:26:00.390Z,101958.41
2022-09-22T03:28:27.297Z,101957.59
2022-09-22T03:30:54.277Z,101959.41
2022-09-22T03:33:21.268Z,101959.31
2022-09-22T03:35:48.282Z,101954.06
2022-09-22T03:38:15.164Z,101953.31
2022-09-22T03:40:42.195Z,101955.09
2022-09-22T03:43:13.114Z,101956.91
2022-09-22T03:45:42.930Z,101943.72
2022-09-22T03:48:09.867Z,101955.16
2022-09-22T03:50:36.870Z,101955.25
2022-09-22T03:53:03.802Z,101944.66
2022-09-22T03:55:30.802Z,101945.72
2022-09-22T03:57:57.665Z,101944.81
2022-09-22T04:00:24.614Z,101939.56
2022-09-22T04:02:51.524Z,101948.50
2022-09-22T04:05:18.877Z,101947.66
2022-09-22T04:07:45.770Z,101946.84
2022-09-22T04:10:12.781Z,101936.25
2022-09-22T04:12:39.650Z,101945.16
2022-09-22T04:15:08.021Z,101944.41
2022-09-22T04:17:35.465Z,101949.81
2022-09-22T04:20:04.487Z,101941.84
2022-09-22T04:22:31.443Z,101938.34
2022-09-22T04:24:58.565Z,101945.53
2022-09-22T04:27:25.557Z,101941.09
2022-09-22T04:29:53.061Z,101936.75
2022-09-22T04:32:19.931Z,101936.63
2022-09-22T04:34:47.867Z,101925.13
2022-09-22T04:37:15.139Z,101929.78
2022-09-22T04:39:42.250Z,101933.50
2022-09-22T04:42:09.253Z,101941.72
2022-09-22T04:44:36.237Z,101929.44
2022-09-22T04:47:04.132Z,101932.22
2022-09-22T04:49:31.196Z,101929.69
2022-09-22T04:51:58.134Z,101927.94
2022-09-22T04:54:25.068Z,101935.97
2022-09-22T04:56:51.966Z,101927.22
2022-09-22T04:59:19.091Z,101926.38
2022-09-22T05:01:46.135Z,101933.41
2022-09-22T05:04:13.381Z,101931.78
2022-09-22T05:06:42.158Z,101936.31
2022-09-22T05:09:09.381Z,101921.38
2022-09-22T05:11:36.705Z,101926.81
2022-09-22T05:14:03.843Z,101928.63
2022-09-22T05:16:32.146Z,101929.50
2022-09-22T05:18:59.185Z,101926.03
2022-09-22T05:21:26.144Z,101933.97
2022-09-22T05:23:53.610Z,101934.84
2022-09-22T05:26:20.814Z,101932.16
2022-09-22T05:28:47.738Z,101940.16
2022-09-22T05:31:14.663Z,101935.72
2022-09-22T05:33:41.705Z,101936.56
2022-09-22T05:36:08.806Z,101937.31
2022-09-22T05:38:35.860Z,101947.00
2022-09-22T05:41:03.726Z,101950.50
2022-09-22T05:43:30.797Z,101943.41
2022-09-22T05:45:57.793Z,101947.66
2022-09-22T05:48:28.880Z,101948.41
2022-09-22T05:50:58.365Z,101947.91
2022-09-22T05:53:25.246Z,101939.53
2022-09-22T05:55:52.248Z,101950.53
2022-09-22T05:58:19.133Z,101938.44
2022-09-22T06:00:46.125Z,101945.03
2022-09-22T06:03:13.452Z,101940.94
2022-09-22T06:05:40.497Z,101952.06
2022-09-22T06:08:07.810Z,101946.19
2022-09-22T06:10:38.082Z,101944.66
2022-09-22T06:13:08.257Z,101943.88
2022-09-22T06:15:36.181Z,101949.53
2022-09-22T06:18:13.052Z,101954.19
2022-09-22T06:20:42.590Z,101947.00
2022-09-22T06:23:09.707Z,101939.16
2022-09-22T06:25:36.606Z,101955.19
2022-09-22T06:28:06.738Z,101941.69
2022-09-22T06:30:36.461Z,101945.16
2022-09-22T06:33:03.487Z,101935.34
2022-09-22T06:35:36.549Z,101950.31
2022-09-22T06:38:06.484Z,101942.13
2022-09-22T06:40:36.438Z,101945.28
2022-09-22T06:43:15.062Z,101948.81
2022-09-22T06:45:46.646Z,101950.44
2022-09-22T06:48:13.694Z,101943.19
2022-09-22T06:50:41.219Z,101945.03
2022-09-22T06:53:13.935Z,101942.28
2022-09-22T06:55:43.186Z,101946.63
2022-09-22T06:58:11.678Z,101937.09
2022-09-22T07:00:41.829Z,101957.91
2022-09-22T07:03:22.826Z,101946.38
2022-09-22T07:06:01.155Z,101941.56
2022-09-22T07:08:31.185Z,101941.16
2022-09-22T07:11:02.217Z,101942.59
2022-09-22T07:13:31.639Z,101932.88
2022-09-22T07:16:03.508Z,101938.59
2022-09-22T07:18:30.932Z,101934.75
2022-09-22T07:21:07.778Z,101936.69
2022-09-22T07:23:36.456Z,101937.75
2022-09-22T07:26:06.352Z,101927.38
2022-09-22T07:28:36.608Z,101928.88
2022-09-22T07:31:06.238Z,101932.19
2022-09-22T07:33:37.531Z,101924.47
2022-09-22T07:36:13.945Z,101934.34
2022-09-22T07:38:43.619Z,101935.22
2022-09-22T07:41:13.822Z,101925.91
2022-09-22T07:43:42.025Z,101926.31
2022-09-22T07:46:09.345Z,101920.56
2022-09-22T07:48:37.661Z,101929.84
2022-09-22T07:51:14.296Z,101927.09
2022-09-22T07:53:42.750Z,101916.16
2022-09-22T07:56:12.453Z,101932.22
2022-09-22T07:58:53.989Z,101919.66
2022-09-22T08:01:24.131Z,101922.22
2022-09-22T08:03:52.151Z,101930.09
2022-09-22T08:06:23.572Z,101926.94
2022-09-22T08:08:56.479Z,101927.97
2022-09-22T08:11:27.205Z,101930.56
2022-09-22T08:14:00.342Z,101925.00
2022-09-22T08:16:31.163Z,101921.66
2022-09-22T08:19:02.247Z,101922.47
2022-09-22T08:21:47.733Z,101924.41
2022-09-22T08:24:22.329Z,101925.81
2022-09-22T08:26:52.709Z,101921.13
2022-09-22T08:29:20.427Z,101919.72
2022-09-22T08:31:51.424Z,101919.25
2022-09-22T08:34:18.823Z,101917.22
2022-09-22T08:36:48.506Z,101911.63
2022-09-22T08:39:17.499Z,101911.34
2022-09-22T08:42:19.748Z,101898.25
2022-09-22T08:45:17.449Z,101908.00
2022-09-22T08:48:11.270Z,101916.84
2022-09-22T08:51:23.027Z,101909.63
2022-09-22T08:53:51.973Z,101909.66
2022-09-22T08:56:41.917Z,101902.41
2022-09-22T09:17:01.689Z,101909.09
2022-09-22T09:19:47.425Z,101907.97
2022-09-22T09:22:37.283Z,101900.97
2022-09-22T09:25:23.437Z,101901.31
2022-09-22T09:27:57.239Z,101899.66
2022-09-22T09:30:24.287Z,101894.06
2022-09-22T09:33:01.691Z,101892.94
2022-09-22T09:35:45.808Z,101898.53
2022-09-22T09:38:16.202Z,101891.31
2022-09-22T09:40:57.153Z,101897.34
2022-09-22T09:43:26.329Z,101887.50
2022-09-22T09:46:24.667Z,101894.03
2022-09-22T09:49:03.686Z,101888.06
2022-09-22T09:51:39.554Z,101871.19
2022-09-22T09:54:13.119Z,101884.53
2022-09-22T09:57:11.564Z,101876.03
2022-09-22T10:00:00.570Z,101865.72
2022-09-22T10:02:30.029Z,101866.91
2022-09-22T10:05:05.607Z,101869.34
2022-09-22T10:07:48.399Z,101862.69
2022-09-22T10:10:38.197Z,101862.06
2022-09-22T10:13:05.005Z,101854.34
2022-09-22T10:15:35.210Z,101856.97
2022-09-22T10:18:03.777Z,101853.72
2022-09-22T10:20:33.993Z,101857.06
2022-09-22T10:23:21.592Z,101846.31
2022-09-22T10:25:50.601Z,101841.16
2022-09-22T10:28:20.441Z,101839.66
2022-09-22T10:31:04.749Z,101833.44
2022-09-22T10:33:33.718Z,101835.03
2022-09-22T10:36:12.740Z,101837.69
2022-09-22T10:38:42.348Z,101831.28
2022-09-22T10:41:12.878Z,101824.97
2022-09-22T10:43:45.511Z,101822.41
2022-09-22T10:46:57.984Z,101832.06
2022-09-22T10:49:35.258Z,101818.59
2022-09-22T10:52:41.349Z,101816.47
2022-09-22T10:55:25.975Z,101822.53
2022-09-22T10:58:10.055Z,101819.16
2022-09-22T11:00:40.900Z,101828.16
2022-09-22T11:03:29.326Z,101812.88
2022-09-22T11:06:31.114Z,101810.69
2022-09-22T11:09:55.108Z,101807.94
2022-09-22T11:12:50.382Z,101807.56
2022-09-22T11:15:59.409Z,101812.38
2022-09-22T11:18:58.763Z,101804.63
2022-09-22T11:21:54.351Z,101807.94
2022-09-22T11:25:04.521Z,101796.56
2022-09-22T11:28:04.118Z,101792.38
2022-09-22T11:30:57.464Z,101789.41
2022-09-22T11:33:46.144Z,101791.09
2022-09-22T11:37:26.397Z,101795.31
2022-09-22T11:40:34.034Z,101794.34
2022-09-22T11:43:28.666Z,101798.28
2022-09-22T11:46:38.196Z,101787.47
2022-09-22T11:49:30.878Z,101782.50
2022-09-22T11:52:43.094Z,101779.88
2022-09-22T11:55:52.221Z,101771.25
2022-09-22T11:58:23.296Z,101773.28
2022-09-22T12:01:12.400Z,101762.72
2022-09-22T12:04:01.339Z,101762.84
2022-09-22T12:06:37.491Z,101771.78
2022-09-22T12:09:12.623Z,101767.06
2022-09-22T12:11:40.961Z,101763.19
2022-09-22T12:14:13.461Z,101768.59
2022-09-22T12:16:52.036Z,101759.25
2022-09-22T12:20:01.006Z,101754.09
2022-09-22T12:22:44.107Z,101754.41
2022-09-22T12:25:25.891Z,101749.84
2022-09-22T12:28:02.467Z,101748.38
2022-09-22T12:30:29.449Z,101742.75
2022-09-22T12:32:56.497Z,101734.16
2022-09-22T12:35:31.403Z,101737.97
2022-09-22T12:38:02.239Z,101726.59
2022-09-22T12:40:35.628Z,101726.53
2022-09-22T12:43:03.084Z,101733.94
2022-09-22T12:45:37.937Z,101723.19
2022-09-22T12:48:24.099Z,101723.81
2022-09-22T12:50:52.478Z,101712.13
2022-09-22T12:53:22.403Z,101706.94
2022-09-22T12:55:57.243Z,101696.78
2022-09-22T12:58:38.512Z,101701.22
2022-09-22T13:01:31.691Z,101697.38
2022-09-22T13:04:18.293Z,101693.88
2022-09-22T13:06:45.103Z,101698.38
2022-09-22T13:09:25.410Z,101697.59
2022-09-22T13:12:11.951Z,101702.50
2022-09-22T13:15:05.055Z,101699.88
2022-09-22T13:17:50.611Z,101689.94
2022-09-22T13:20:30.259Z,101687.22
2022-09-22T13:27:42.819Z,101672.56
2022-09-22T13:30:14.276Z,101669.72
2022-09-22T13:32:49.682Z,101669.94
2022-09-22T13:35:28.275Z,101682.41
2022-09-22T13:37:59.721Z,101680.44
2022-09-22T13:40:31.703Z,101680.94
2022-09-22T13:43:08.853Z,101682.84
2022-09-22T13:45:38.314Z,101671.50
2022-09-22T13:48:16.384Z,101671.50
2022-09-22T13:55:33.467Z,101657.22
2022-09-22T13:58:02.020Z,101660.44
2022-09-22T14:00:49.792Z,101659.53
2022-09-22T14:03:22.257Z,101660.34
2022-09-22T14:05:54.076Z,101652.44
2022-09-22T14:08:31.759Z,101659.06
2022-09-22T14:11:00.120Z,101648.81
2022-09-22T14:13:54.396Z,101651.19
2022-09-22T14:16:47.309Z,101647.03
2022-09-22T14:19:16.892Z,101646.50
2022-09-22T14:21:52.233Z,101646.66
2022-09-22T14:24:19.415Z,101642.22
2022-09-22T14:27:01.638Z,101642.03
2022-09-22T14:29:37.791Z,101644.47
2022-09-22T14:32:19.293Z,101639.88
2022-09-22T14:34:49.778Z,101637.38
2022-09-22T14:37:27.908Z,101640.13
2022-09-22T14:39:57.670Z,101633.06
2022-09-22T14:42:29.017Z,101628.53
2022-09-22T14:45:18.671Z,101626.00
2022-09-22T14:47:45.844Z,101628.78
2022-09-22T14:50:19.149Z,101624.06
2022-09-22T14:53:06.874Z,101620.44
2022-09-22T14:55:43.536Z,101620.78
2022-09-22T14:58:25.436Z,101621.59
2022-09-22T15:01:17.801Z,101615.53
2022-09-22T15:03:59.119Z,101605.06
2022-09-22T15:06:36.700Z,101598.88
2022-09-22T15:09:05.734Z,101604.75
2022-09-22T15:11:52.136Z,101605.28
2022-09-22T15:14:34.066Z,101608.84
2022-09-22T15:17:21.151Z,101604.41
2022-09-22T15:19:57.073Z,101600.06
2022-09-22T15:22:26.970Z,101597.75
2022-09-22T15:24:54.601Z,101601.44
2022-09-22T15:27:21.556Z,101600.91
2022-09-22T15:29:54.854Z,101602.25
2022-09-22T15:32:22.066Z,101600.78
2022-09-22T15:34:48.897Z,101594.81
2022-09-22T15:37:22.173Z,101593.22
2022-09-22T15:39:49.330Z,101594.53
2022-09-22T15:42:16.434Z,101591.19
2022-09-22T15:44:44.274Z,101591.19
2022-09-22T15:47:16.949Z,101588.13
2022-09-22T15:49:45.010Z,101588.81
2022-09-22T15:52:11.978Z,101572.06
2022-09-22T15:54:38.905Z,101586.25
2022-09-22T15:57:06.344Z,101577.31
2022-09-22T15:59:33.616Z,101579.91
2022-09-22T16:02:01.199Z,101581.06
2022-09-22T16:04:33.787Z,101572.50
2022-09-22T16:07:06.283Z,101585.66
2022-09-22T16:09:33.169Z,101568.00
2022-09-22T16:12:00.446Z,101574.50
2022-09-22T16:14:27.397Z,101573.59
2022-09-22T16:16:54.376Z,101567.69
2022-09-22T16:19:21.281Z,101569.13
2022-09-22T16:21:56.700Z,101567.94
2022-09-22T16:24:23.977Z,101566.28
2022-09-22T16:26:51.824Z,101562.66
2022-09-22T16:29:19.494Z,101563.16
2022-09-22T16:31:46.484Z,101555.72
2022-09-22T16:34:13.502Z,101553.56
2022-09-22T16:36:41.658Z,101552.50
2022-09-22T16:39:08.709Z,101557.25
2022-09-22T16:41:36.392Z,101550.22
2022-09-22T16:44:04.483Z,101540.09
2022-09-22T16:46:35.813Z,101540.69
2022-09-22T16:49:10.633Z,101543.53
2022-09-22T16:51:44.066Z,101543.75
2022-09-22T16:54:13.661Z,101550.75
2022-09-22T16:56:46.196Z,101548.84
2022-09-22T16:59:17.855Z,101540.63
2022-09-22T17:01:45.832Z,101552.91
2022-09-22T17:04:16.295Z,101549.13
2022-09-22T17:06:43.640Z,101546.88
2022-09-22T17:09:12.492Z,101546.31
2022-09-22T17:11:42.573Z,101548.66
2022-09-22T17:14:27.806Z,101542.22
2022-09-22T17:16:56.460Z,101544.84
2022-09-22T17:19:26.526Z,101546.31
2022-09-22T17:21:55.990Z,101544.13
2022-09-22T17:24:25.013Z,101549.00
2022-09-22T17:26:55.785Z,101537.81
2022-09-22T17:29:28.993Z,101548.56
2022-09-22T17:31:59.885Z,101543.38
2022-09-22T17:34:30.518Z,101541.34
2022-09-22T17:36:57.869Z,101550.03
2022-09-22T17:39:26.897Z,101549.22
2022-09-22T17:41:55.100Z,101546.63
2022-09-22T17:44:22.829Z,101543.28
2022-09-22T17:47:10.551Z,101543.09
2022-09-22T17:49:56.938Z,101546.50
2022-09-22T17:52:29.716Z,101539.59
2022-09-22T17:55:07.897Z,101548.16
2022-09-22T17:57:41.742Z,101548.69
2022-09-22T18:00:21.227Z,101541.50
2022-09-22T18:02:50.601Z,101544.88
2022-09-22T18:05:25.366Z,101542.25
2022-09-22T18:07:58.018Z,101548.19
2022-09-22T18:10:32.169Z,101539.72
2022-09-22T18:13:00.247Z,101527.72
2022-09-22T18:15:29.082Z,101540.56
2022-09-22T18:17:57.975Z,101553.69
2022-09-22T18:20:26.119Z,101551.91
2022-09-22T18:22:53.745Z,101548.09
2022-09-22T18:25:23.879Z,101543.19
2022-09-22T18:27:51.823Z,101551.13
2022-09-22T18:30:19.476Z,101556.19
2022-09-22T18:32:47.932Z,101550.69
2022-09-22T18:35:15.665Z,101548.59
2022-09-22T18:37:42.574Z,101554.53
2022-09-22T18:40:12.264Z,101553.19
2022-09-22T18:42:41.397Z,101550.59
2022-09-22T18:45:10.894Z,101553.97
2022-09-22T18:47:40.700Z,101537.94
2022-09-22T18:50:08.715Z,101544.81
2022-09-22T18:52:36.689Z,101549.88
2022-09-22T18:55:04.698Z,101549.63
2022-09-22T18:57:31.639Z,101550.63
2022-09-22T19:00:00.231Z,101544.44
2022-09-22T19:02:27.298Z,101545.69
2022-09-22T19:04:54.787Z,101553.44
2022-09-22T19:07:44.130Z,101551.31
2022-09-22T19:10:22.520Z,101548.34
2022-09-22T19:12:50.086Z,101552.66
2022-09-22T19:15:18.798Z,101554.13
2022-09-22T19:17:49.245Z,101543.28
2022-09-22T19:20:24.836Z,101558.88
2022-09-22T19:22:52.807Z,101552.97
2022-09-22T19:25:21.932Z,101558.63
2022-09-22T19:27:52.616Z,101559.19
2022-09-22T19:30:23.297Z,101564.75
2022-09-22T19:32:54.548Z,101560.13
2022-09-22T19:35:21.870Z,101552.56
2022-09-22T19:37:51.653Z,101556.50
2022-09-22T19:40:19.435Z,101556.94
2022-09-22T19:42:47.578Z,101545.75
2022-09-22T19:45:14.739Z,101553.63
2022-09-22T19:47:41.930Z,101543.41
2022-09-22T19:50:09.122Z,101539.31
2022-09-22T19:52:37.682Z,101540.41
2022-09-22T19:55:07.043Z,101536.31
2022-09-22T19:57:41.390Z,101538.25
2022-09-22T20:00:18.000Z,101543.91
2022-09-22T20:02:45.639Z,101535.25
2022-09-22T20:05:20.739Z,101534.63
2022-09-22T20:07:49.536Z,101531.50
2022-09-22T20:10:18.902Z,101537.03
2022-09-22T20:12:46.144Z,101534.59
2022-09-22T20:15:16.191Z,101528.41
2022-09-22T20:17:47.189Z,101530.38
2022-09-22T20:20:20.702Z,101531.81
2022-09-22T20:22:50.892Z,101533.88
2022-09-22T20:25:25.649Z,101526.31
2022-09-22T20:27:52.595Z,101532.16
2022-09-22T20:30:20.031Z,101528.06
2022-09-22T20:32:47.393Z,101522.22
2022-09-22T20:35:17.398Z,101534.03
2022-09-22T20:37:45.217Z,101528.22
2022-09-22T20:40:20.425Z,101527.66
2022-09-22T20:42:48.795Z,101528.19
2022-09-22T20:45:16.173Z,101525.06
2022-09-22T20:47:43.127Z,101525.31
2022-09-22T20:50:11.857Z,101520.22
2022-09-22T20:52:41.573Z,101518.59
2022-09-22T20:55:10.849Z,101516.22
2022-09-22T20:57:38.057Z,101525.41
2022-09-22T21:00:05.588Z,101514.19
2022-09-22T21:02:33.060Z,101525.00
2022-09-22T21:05:00.071Z,101519.03
2022-09-22T21:07:27.233Z,101514.72
2022-09-22T21:10:12.859Z,101518.50
2022-09-22T21:12:40.430Z,101508.03
2022-09-22T21:15:08.043Z,101517.09
2022-09-22T21:17:35.545Z,101510.06
2022-09-22T21:20:02.975Z,101515.47
2022-09-22T21:22:31.010Z,101510.50
2022-09-22T21:24:58.100Z,101514.91
2022-09-22T21:27:25.014Z,101510.91
2022-09-22T21:29:53.137Z,101503.38
2022-09-22T21:32:20.607Z,101506.16
2022-09-22T21:34:47.510Z,101507.47
2022-09-22T21:37:14.709Z,101498.50
2022-09-22T21:39:41.603Z,101498.69
2022-09-22T21:42:08.550Z,101499.03
2022-09-22T21:44:35.389Z,101492.31
2022-09-22T21:47:02.275Z,101492.63
2022-09-22T21:49:29.123Z,101485.19
2022-09-22T21:51:56.046Z,101483.78
2022-09-22T21:54:23.147Z,101476.31
2022-09-22T21:56:50.673Z,101475.53
2022-09-22T21:59:17.748Z,101475.53
2022-09-22T22:01:45.334Z,101475.84
2022-09-22T22:04:15.166Z,101471.53
2022-09-22T22:06:46.864Z,101472.66
2022-09-22T22:09:20.100Z,101476.66
2022-09-22T22:11:54.054Z,101463.56
2022-09-22T22:14:22.530Z,101465.53
2022-09-22T22:16:52.576Z,101463.69
2022-09-22T22:19:22.649Z,101479.00
2022-09-22T22:21:50.962Z,101463.13
2022-09-22T22:24:28.764Z,101467.63
2022-09-22T22:27:06.267Z,101468.59
2022-09-22T22:29:38.699Z,101458.91
2022-09-22T22:32:09.027Z,101466.69
2022-09-22T22:34:36.268Z,101459.56
2022-09-22T22:37:04.695Z,101464.88
2022-09-22T22:39:32.549Z,101461.47
2022-09-22T22:41:59.444Z,101466.03
2022-09-22T22:44:26.337Z,101459.66
2022-09-22T22:46:53.183Z,101465.81
2022-09-22T22:49:20.975Z,101459.19
2022-09-22T22:51:49.355Z,101454.03
2022-09-22T22:54:16.531Z,101447.22
2022-09-22T22:56:45.872Z,101457.41
2022-09-22T22:59:15.993Z,101451.38
2022-09-22T23:01:44.323Z,101453.50
2022-09-22T23:04:12.058Z,101451.22
2022-09-22T23:06:44.115Z,101451.72
2022-09-22T23:09:14.432Z,101450.88
2022-09-22T23:11:42.421Z,101450.94
2022-09-22T23:14:11.788Z,101443.16
2022-09-22T23:16:45.635Z,101451.25
2022-09-22T23:19:16.987Z,101440.03
2022-09-22T23:21:45.106Z,101449.91
2022-09-22T23:24:16.152Z,101446.56
2022-09-22T23:26:44.799Z,101443.09
2022-09-22T23:29:11.719Z,101445.13
2022-09-22T23:31:38.667Z,101444.38
2022-09-22T23:34:05.781Z,101439.06
2022-09-22T23:36:32.685Z,101443.72
2022-09-22T23:39:04.883Z,101438.41
2022-09-22T23:41:34.413Z,101444.00
2022-09-22T23:44:02.757Z,101435.94
2022-09-22T23:46:30.124Z,101441.59
2022-09-22T23:48:57.930Z,101434.56
2022-09-22T23:51:24.881Z,101434.84
2022-09-22T23:53:51.860Z,101426.22
2022-09-22T23:56:19.758Z,101422.56
2022-09-22T23:58:46.734Z,101425.44
